Weather at Guernsey Airport

Public forecast

Using degrees Celsius for public forecast. Weather courtesy of forecast.io.

Current aviation weather report (METAR) for Guernsey Airport

2024/05/29 20:20 (retrieved 26 minutes ago)

EGJB 292020Z 29009KT 9999 BKN046 13/12 Q1012

Closest aviation forecast (TAF) to Guernsey Airport

Closest forecast is Dinard-Pleurtuit-Saint-Malo Airport, 54.9 nm (101.6 km) SSE.

2024/05/29 18:22 Ammendment (retrieved 2 hours ago)

TAF AMD LFRD 291814Z 2918/3018 31010KT 9999 SCT012 BKN025 TEMPO 2918/3006 BKN008 PROB40 TEMPO 3000/3006 4000 -RA BECMG 3006/3008 31015G25KT PROB40 TEMPO 3006/3010 3000 SHRA BKN012 BKN020CB